Hauptseite
METAR-TAF:

METAR-TAF

Flughäfen :

Flughafen Lampedusa

Lampedusa, Italien

Breite: 35-30N, Länge: 012-36E, Höhe: 16 m

Beobachtung

Neuester Wetterbericht von vor 1 Stunde und 18 Minuten, um 07:50 UTC
Wind 19 kt aus Südost
Temperatur 16°C
Luftfeuchtigkeit 82%
Luftdruck 1025 hPa
Sichtweite 10 km oder mehr
Leicht bewölkt in der Höhe von 2000 ft

METAR: LICD 240750Z 14019KT 9999 FEW020 16/13 Q1025

Zeit: 10:08 (09:08 UTC)

Prognose

Neuester Wetterbericht von vor 4 Stunden und 8 Minuten, um 05:00 UTC
Gültige Prognose vom 24 um 06 UTC bis 25 um 06 UTC
Wind 20 kt aus Südost, Böen bis zu 30 kt
Sichtweite 10 km oder mehr
Aufgelockert bewölkt in der Höhe von 2500 ft
Übergehend zu
vom 24 um 14 UTC bis 24 um 16 UTC
Wind 18 kt aus Südost

TAF: LICD 240500Z 2406/2506 14020G30KT 9999 SCT025 BECMG 2414/2416 14018KT

Wetterbeobachtungen und Prognosen von mehr als 4000 Flughäfen (METAR und TAF Bericht).

Die verfügbaren Stationen werden durch gelbe und rote Markierungen auf der Karte dargestellt.

Führen Sie die Maus auf sie, um den Namen der Station zu sehen.

Darauf klicken, um die Beobachtung von Wetterbeobachtungen und Prognosen zu sehen.

Um die Karte zu ändern : klicken Sie auf den grünen Tasten mit einem schwarzen Kreuz Zum Vergrößern, auf den grünen Button mit einem Gedankenstrich zu verkleinern, oder auf die grünen Pfeile für benachbarte Karten.


METAR-TAF: